Time;durP1;ratioP1;P1;durP2;ratioP2;P2;SDS_P1;SDS_P2;PMS_P1;PMS_P2;Temp;Humidity;BMP_temperature;BMP_pressure;BME280_temperature;BME280_humidity;BME280_pressure;Samples;Min_cycle;Max_cycle;Signal;HPM_P1;HPM_P2
2022/05/11 00:02:11;;;;;;;13.07;4.83;;;;;;;7.64;66.85;99016.16;2255278;79;20899;-79
2022/05/11 00:05:11;;;;;;;9.13;4.93;;;;;;;7.61;66.83;99009.16;2255480;79;20915;-79
2022/05/11 00:08:12;;;;;;;6.73;4.97;;;;;;;7.58;66.99;99012.98;2248764;79;21369;-79
2022/05/11 00:11:12;;;;;;;28.43;12.47;;;;;;;7.55;67.12;99015.91;2248360;79;20900;-79
2022/05/11 00:14:13;;;;;;;13.53;6.83;;;;;;;7.52;67.21;99006.32;2248264;79;20868;-80
2022/05/11 00:17:13;;;;;;;14.50;6.80;;;;;;;7.50;67.21;99011.90;2247854;79;21326;-79
2022/05/11 00:20:13;;;;;;;11.40;5.83;;;;;;;7.52;67.30;98998.95;2248405;79;20900;-80
2022/05/11 00:23:14;;;;;;;13.37;5.10;;;;;;;7.56;67.25;98998.19;2248081;79;20904;-80
2022/05/11 00:26:15;;;;;;;9.87;5.43;;;;;;;7.64;67.17;98991.05;2248130;79;20948;-80
2022/05/11 00:29:15;;;;;;;11.37;5.87;;;;;;;7.63;67.20;98997.09;2248176;79;20963;-80
2022/05/11 00:32:15;;;;;;;10.40;5.20;;;;;;;7.60;67.02;98989.64;2248264;79;20899;-80
2022/05/11 00:35:15;;;;;;;10.80;5.93;;;;;;;7.55;67.05;98988.22;2248267;79;21307;-80
2022/05/11 00:38:16;;;;;;;8.20;4.87;;;;;;;7.54;67.22;98992.95;2248117;79;21273;-79
2022/05/11 00:41:16;;;;;;;10.63;5.47;;;;;;;7.56;67.31;98986.08;2248531;79;20968;-80
2022/05/11 00:44:17;;;;;;;14.63;5.63;;;;;;;7.60;67.38;98985.32;2248176;79;21416;-80
2022/05/11 00:47:17;;;;;;;9.33;4.80;;;;;;;7.62;67.50;98984.94;2248290;79;21365;-80
2022/05/11 00:50:17;;;;;;;179.57;16.53;;;;;;;7.61;67.62;98984.90;2248172;79;20911;-80
2022/05/11 00:53:18;;;;;;;49.27;9.47;;;;;;;7.59;67.74;98983.56;2248362;79;20911;-81
2022/05/11 00:56:18;;;;;;;12.53;5.33;;;;;;;7.64;67.84;98981.08;2249147;79;21227;-81
2022/05/11 00:59:19;;;;;;;79.63;11.13;;;;;;;7.72;67.62;98983.88;2248625;79;20980;-81
2022/05/11 01:02:19;;;;;;;15.47;6.57;;;;;;;7.71;67.68;98982.12;2248396;79;20861;-80
2022/05/11 01:05:19;;;;;;;8.40;5.50;;;;;;;7.78;67.69;98979.71;2248122;79;21269;-79
2022/05/11 01:08:20;;;;;;;12.27;5.73;;;;;;;7.76;67.46;98974.02;2259123;79;20939;-81
2022/05/11 01:11:21;;;;;;;9.53;5.70;;;;;;;7.73;67.22;98972.22;2261876;79;21341;-80
2022/05/11 01:14:21;;;;;;;39.10;8.20;;;;;;;7.72;67.37;98972.18;2262542;79;20995;-79
2022/05/11 01:17:24;;;;;;;9.20;5.90;;;;;;;7.75;67.44;98972.26;2261685;79;20943;-80
2022/05/11 01:20:21;;;;;;;10.23;6.20;;;;;;;7.72;67.33;98967.86;2262127;79;21287;-81
2022/05/11 01:23:22;;;;;;;14.63;6.40;;;;;;;7.74;67.53;98975.70;2262195;79;20903;-80
2022/05/11 01:26:22;;;;;;;10.27;6.17;;;;;;;7.74;67.11;98964.00;2262239;79;20867;-80
2022/05/11 01:29:23;;;;;;;8.17;5.73;;;;;;;7.79;67.28;98963.28;2262147;79;20892;-80
2022/05/11 01:32:23;;;;;;;12.00;5.97;;;;;;;7.81;67.44;98949.05;2262139;79;20938;-80
2022/05/11 01:35:23;;;;;;;11.80;6.27;;;;;;;7.82;67.43;98949.52;2262387;79;21298;-81
2022/05/11 01:38:24;;;;;;;15.27;6.97;;;;;;;7.81;67.38;98952.95;2262165;79;20963;-80
2022/05/11 01:41:24;;;;;;;69.10;23.63;;;;;;;7.85;67.24;98948.29;2261922;79;20896;-80
2022/05/11 01:44:25;;;;;;;98.43;30.57;;;;;;;7.84;67.05;98949.13;2261868;79;20926;-79
2022/05/11 01:47:25;;;;;;;38.73;15.97;;;;;;;7.80;66.99;98948.56;2262064;79;20954;-79
2022/05/11 01:50:25;;;;;;;37.30;8.13;;;;;;;7.80;66.87;98949.86;2262052;79;21349;-79
2022/05/11 01:53:26;;;;;;;27.47;5.80;;;;;;;7.77;66.97;98946.77;2261979;79;20937;-78
2022/05/11 01:56:26;;;;;;;9.37;5.77;;;;;;;7.79;67.17;98944.20;2262168;79;20918;-79
2022/05/11 01:59:27;;;;;;;7.37;5.67;;;;;;;7.81;67.02;98943.44;2262015;79;21361;-78
2022/05/11 02:02:27;;;;;;;38.73;7.10;;;;;;;7.82;66.96;98937.81;2261255;79;20904;-80
2022/05/11 02:08:46;;;;;;;13.43;6.10;;;;;;;7.87;67.15;98937.51;2249734;78;21020;-79
2022/05/11 02:11:47;;;;;;;69.03;9.70;;;;;;;7.87;67.09;98938.80;2247912;79;21014;-80
2022/05/11 02:14:47;;;;;;;35.93;7.03;;;;;;;7.86;67.17;98937.93;2248436;79;20947;-82
2022/05/11 02:17:48;;;;;;;24.57;7.57;;;;;;;7.89;67.04;98935.82;2248233;79;21299;-80
2022/05/11 02:20:48;;;;;;;24.53;5.97;;;;;;;7.93;67.00;98932.45;2248288;79;20936;-80
2022/05/11 02:23:50;;;;;;;241.37;19.10;;;;;;;7.98;66.97;98938.22;2247769;79;20888;-80
2022/05/11 02:26:49;;;;;;;17.43;6.10;;;;;;;8.02;66.86;98931.38;2248416;79;21331;-79
2022/05/11 02:29:49;;;;;;;12.37;6.20;;;;;;;8.08;66.83;98929.33;2248364;79;20904;-79
2022/05/11 02:32:50;;;;;;;56.30;8.07;;;;;;;8.10;66.81;98915.52;2248379;79;20912;-79
2022/05/11 02:35:50;;;;;;;6.13;5.20;;;;;;;8.12;66.79;98912.95;2248367;79;20900;-79
2022/05/11 02:38:50;;;;;;;15.67;6.33;;;;;;;8.15;66.75;98910.42;2248497;79;20957;-79
2022/05/11 02:41:52;;;;;;;16.47;6.77;;;;;;;8.12;66.83;98906.03;2248352;79;21306;-79
2022/05/11 02:44:52;;;;;;;58.70;10.10;;;;;;;8.11;67.04;98908.18;2248002;79;20928;-80
2022/05/11 02:47:52;;;;;;;11.33;6.10;;;;;;;8.09;66.73;98899.47;2248318;79;21046;-80
2022/05/11 02:50:52;;;;;;;18.83;6.67;;;;;;;8.16;66.53;98900.06;2248212;79;21313;-80
2022/05/11 02:53:52;;;;;;;13.23;6.53;;;;;;;8.17;66.46;98892.72;2248359;79;21291;-80
2022/05/11 02:56:53;;;;;;;11.47;6.23;;;;;;;8.18;66.71;98890.57;2248193;79;20868;-79
2022/05/11 02:59:53;;;;;;;58.70;8.47;;;;;;;8.17;66.37;98884.91;2248571;79;20884;-81
2022/05/11 03:02:53;;;;;;;14.53;6.30;;;;;;;8.22;66.21;98888.92;2248413;79;21270;-81
2022/05/11 03:05:56;;;;;;;22.67;6.97;;;;;;;8.25;65.92;98886.38;2248880;79;21000;-80
2022/05/11 03:08:56;;;;;;;11.23;6.93;;;;;;;8.31;65.78;98886.52;2259637;77;20974;-80
2022/05/11 03:11:56;;;;;;;15.00;6.60;;;;;;;8.34;65.68;98887.03;2262280;79;21347;-80
2022/05/11 03:14:57;;;;;;;9.87;5.97;;;;;;;8.37;65.32;98887.10;2262350;79;20899;-80
2022/05/11 03:17:57;;;;;;;11.80;6.73;;;;;;;8.37;65.45;98887.98;2261914;79;21006;-80
2022/05/11 03:20:58;;;;;;;11.77;6.50;;;;;;;8.35;65.58;98877.09;2262135;79;20947;-80
2022/05/11 03:23:58;;;;;;;16.03;7.30;;;;;;;8.37;65.42;98876.70;2261711;78;20971;-79
2022/05/11 03:26:59;;;;;;;11.90;6.33;;;;;;;8.39;65.34;98877.19;2262189;79;20868;-78
2022/05/11 03:29:59;;;;;;;12.70;6.80;;;;;;;8.39;65.68;98874.58;2262073;79;20946;-79
2022/05/11 03:36:19;;;;;;;15.77;6.90;;;;;;;8.39;66.30;98878.48;2262419;78;20992;-79
2022/05/11 03:39:19;;;;;;;12.97;6.70;;;;;;;8.47;65.87;98881.24;2262159;79;20940;-80
2022/05/11 03:42:22;;;;;;;18.33;7.07;;;;;;;8.60;65.93;98885.85;2262328;79;20930;-81
2022/05/11 03:45:20;;;;;;;25.90;7.53;;;;;;;8.77;65.59;98874.08;2261839;79;20938;-79
2022/05/11 03:48:21;;;;;;;51.47;8.60;;;;;;;8.99;65.36;98882.30;2259581;79;21086;-79
2022/05/11 03:51:23;;;;;;;16.23;7.27;;;;;;;9.22;65.20;98881.86;2261272;79;21463;-80
2022/05/11 03:54:22;;;;;;;58.67;8.83;;;;;;;9.45;64.81;98880.08;2260927;79;20955;-80
2022/05/11 03:57:22;;;;;;;13.40;7.07;;;;;;;9.69;64.43;98877.03;2259773;79;21326;-80
2022/05/11 04:00:23;;;;;;;10.60;6.53;;;;;;;9.86;64.45;98875.56;2259285;79;20981;-79
2022/05/11 04:03:23;;;;;;;14.93;7.50;;;;;;;10.04;64.19;98881.47;2259188;79;20958;-79
2022/05/11 04:06:23;;;;;;;11.57;6.70;;;;;;;10.23;63.92;98880.91;2258570;79;20942;-79
2022/05/11 04:09:24;;;;;;;9.17;6.50;;;;;;;10.38;63.92;98885.45;2239707;79;20976;-79
2022/05/11 04:12:26;;;;;;;11.63;6.40;;;;;;;10.53;64.17;98886.56;2238324;79;20993;-81
2022/05/11 04:15:25;;;;;;;17.07;7.43;;;;;;;10.69;64.31;98882.40;2238944;79;20996;-80
2022/05/11 04:18:25;;;;;;;65.55;9.75;;;;;;;10.81;64.20;98879.06;2240232;79;20987;-80
2022/05/11 04:21:26;;;;;;;12.93;7.35;;;;;;;10.97;63.54;98880.10;2239137;79;21052;-80
2022/05/11 04:24:26;;;;;;;11.63;6.70;;;;;;;11.15;63.60;98877.68;2238497;79;20994;-80
2022/05/11 04:27:26;;;;;;;10.75;7.00;;;;;;;11.34;62.85;98884.87;2239492;79;20967;-80
2022/05/11 04:30:31;;;;;;;9.08;6.65;;;;;;;11.56;62.72;98878.52;2239499;79;20995;-80
2022/05/11 04:33:28;;;;;;;12.45;6.65;;;;;;;11.75;63.12;98873.87;2239742;79;20939;-79
2022/05/11 04:36:28;;;;;;;12.65;6.70;;;;;;;11.88;63.11;98871.83;2239663;79;21217;-79
2022/05/11 04:39:28;;;;;;;12.55;7.03;;;;;;;11.98;62.73;98871.03;2240302;79;20964;-79
2022/05/11 04:42:30;;;;;;;16.55;7.35;;;;;;;12.09;62.81;98872.41;2240024;79;20939;-80
2022/05/11 04:45:29;;;;;;;14.03;7.75;;;;;;;12.24;62.54;98869.03;2239019;79;21031;-77
2022/05/11 04:48:29;;;;;;;86.20;10.32;;;;;;;12.44;62.48;98867.39;2238362;79;20990;-81
2022/05/11 04:51:29;;;;;;;20.90;7.35;;;;;;;12.69;62.46;98862.70;2238917;79;20951;-80
2022/05/11 04:54:30;;;;;;;128.32;11.85;;;;;;;12.93;62.03;98862.34;2238643;79;21418;-80
2022/05/11 04:57:30;;;;;;;13.93;6.87;;;;;;;13.10;61.82;98854.11;2237707;79;20927;-80
2022/05/11 05:00:31;;;;;;;21.17;6.97;;;;;;;13.26;61.78;98861.59;2237856;79;21023;-81
2022/05/11 05:03:31;;;;;;;26.30;8.80;;;;;;;13.40;61.43;98854.62;2238561;79;21828;-79
2022/05/11 05:06:35;;;;;;;117.57;11.43;;;;;;;13.56;60.80;98852.88;2238027;79;21213;-81
2022/05/11 05:09:35;;;;;;;21.20;7.97;;;;;;;13.69;60.89;98850.69;2250774;79;20998;-81
2022/05/11 05:12:35;;;;;;;10.90;7.17;;;;;;;13.82;60.82;98851.55;2252480;79;20891;-82
2022/05/11 05:15:36;;;;;;;12.33;6.67;;;;;;;13.97;61.21;98863.38;2252402;79;21912;-81
2022/05/11 05:18:36;;;;;;;23.70;6.72;;;;;;;14.07;60.56;98866.41;2252280;79;21449;-79
2022/05/11 05:21:37;;;;;;;28.62;7.87;;;;;;;14.15;60.71;98861.15;2252715;79;20931;-80
2022/05/11 05:24:37;;;;;;;365.80;28.70;;;;;;;14.29;61.34;98856.30;2252052;78;20962;-81
2022/05/11 05:27:38;;;;;;;127.47;15.10;;;;;;;14.44;61.20;98862.41;2252415;79;21333;-82
2022/05/11 05:34:00;;;;;;;22.35;7.70;;;;;;;14.65;60.80;98861.02;2253032;79;20967;-79
2022/05/11 05:37:00;;;;;;;12.35;6.78;;;;;;;14.77;61.37;98858.37;2253487;79;21026;-82
2022/05/11 05:40:01;;;;;;;14.90;7.20;;;;;;;14.88;61.42;98859.63;2252359;79;20997;-81
2022/05/11 05:43:01;;;;;;;15.48;6.78;;;;;;;14.98;61.00;98853.00;2252314;79;21501;-80
2022/05/11 05:46:01;;;;;;;13.75;7.30;;;;;;;15.09;61.34;98856.00;2252877;79;20982;-78
2022/05/11 05:49:03;;;;;;;9.13;6.65;;;;;;;15.13;60.47;98857.29;2251923;78;21362;-79
2022/05/11 05:52:03;;;;;;;12.58;7.15;;;;;;;15.21;60.39;98860.75;2251213;79;20980;-78
2022/05/11 05:55:03;;;;;;;15.25;7.55;;;;;;;15.30;60.22;98863.31;2252225;79;20978;-81
2022/05/11 05:58:05;;;;;;;22.07;9.28;;;;;;;15.61;59.64;98857.89;2251486;79;20959;-80
2022/05/11 06:01:04;;;;;;;20.12;9.35;;;;;;;16.08;58.92;98866.67;2252144;79;20914;-80
2022/05/11 06:04:05;;;;;;;46.30;12.75;;;;;;;16.56;57.54;98855.20;2251465;79;20955;-79
2022/05/11 06:07:05;;;;;;;43.40;11.05;;;;;;;16.82;56.46;98857.55;2250602;79;20987;-79
2022/05/11 06:10:05;;;;;;;47.03;11.70;;;;;;;17.09;55.82;98853.21;2244644;77;21015;-79
2022/05/11 06:13:08;;;;;;;40.60;11.50;;;;;;;17.39;54.70;98861.60;2244803;79;20990;-81
2022/05/11 06:16:08;;;;;;;66.57;15.63;;;;;;;17.80;53.80;98863.16;2223219;79;21027;-81
2022/05/11 06:19:08;;;;;;;33.90;11.43;;;;;;;18.23;52.92;98859.78;2245053;79;20994;-82
2022/05/11 06:22:09;;;;;;;42.30;12.60;;;;;;;18.74;52.23;98863.66;2244933;79;21019;-82
2022/05/11 06:25:09;;;;;;;39.25;12.25;;;;;;;19.25;51.39;98856.84;2245869;79;20936;-80
2022/05/11 06:28:10;;;;;;;19.50;9.58;;;;;;;19.77;50.26;98859.15;2246026;79;20943;-82
2022/05/11 06:31:10;;;;;;;15.65;8.48;;;;;;;20.25;48.81;98858.36;2247185;79;20974;-82
2022/05/11 06:34:11;;;;;;;15.20;7.90;;;;;;;20.67;48.33;98858.11;2247526;79;20974;-82
2022/05/11 06:37:11;;;;;;;16.52;8.15;;;;;;;20.75;47.54;98864.06;2246541;79;21030;-80
2022/05/11 06:40:11;;;;;;;17.62;8.35;;;;;;;20.73;47.17;98859.27;2245898;79;20936;-81
2022/05/11 06:43:12;;;;;;;21.48;8.40;;;;;;;20.59;47.53;98864.09;2245550;79;20903;-82
2022/05/11 06:46:13;;;;;;;20.37;8.30;;;;;;;20.50;47.69;98866.55;2246373;79;21276;-81
2022/05/11 06:49:12;;;;;;;36.45;9.13;;;;;;;20.54;48.16;98867.33;2246957;79;20908;-82
2022/05/11 06:52:17;;;;;;;16.67;7.05;;;;;;;20.81;47.86;98863.05;2224008;79;20998;-81
2022/05/11 07:01:53;;;;;;;13.72;7.00;;;;;;;21.76;45.46;98858.37;2245092;78;21366;-81
2022/05/11 07:04:56;;;;;;;12.73;7.10;;;;;;;22.13;45.73;98852.72;2222417;79;20955;-82
2022/05/11 07:07:56;;;;;;;15.43;6.47;;;;;;;22.47;44.58;98857.70;2247622;78;20974;-83
2022/05/11 07:14:18;;;;;;;13.68;5.62;;;;;;;22.81;43.28;98855.61;2259917;78;21449;-83
2022/05/11 07:17:18;;;;;;;11.63;5.85;;;;;;;22.97;43.03;98850.58;2229903;79;21046;-84
2022/05/11 07:20:18;;;;;;;11.70;6.40;;;;;;;23.08;41.35;98851.49;2260484;79;21018;-82
2022/05/11 07:23:18;;;;;;;24.63;6.33;;;;;;;23.18;41.68;98850.20;2259692;79;21005;-82
2022/05/11 07:26:19;;;;;;;7.42;5.35;;;;;;;23.47;41.83;98838.43;2261303;79;21361;-81
2022/05/11 07:29:19;;;;;;;10.25;5.17;;;;;;;23.76;40.59;98838.14;2261183;79;20958;-82
2022/05/11 07:32:23;;;;;;;10.00;5.70;;;;;;;24.06;40.71;98842.64;2228235;79;20998;-81
2022/05/11 07:35:22;;;;;;;12.88;5.60;;;;;;;24.40;39.35;98841.23;2260891;79;20907;-81
2022/05/11 07:38:24;;;;;;;8.93;5.03;;;;;;;24.44;39.07;98839.70;2226949;79;20974;-83
2022/05/11 07:41:25;;;;;;;7.75;4.95;;;;;;;24.32;39.14;98834.03;2260585;79;21339;-83
2022/05/11 07:44:25;;;;;;;8.43;5.37;;;;;;;24.36;39.04;98828.97;2261436;79;20954;-81
2022/05/11 07:47:25;;;;;;;7.92;4.90;;;;;;;24.18;39.30;98824.38;2260606;79;20986;-83
2022/05/11 07:50:26;;;;;;;6.65;4.72;;;;;;;24.04;39.10;98821.84;2261204;79;20962;-82
2022/05/11 07:53:26;;;;;;;6.20;4.72;;;;;;;24.09;38.78;98810.97;2261438;79;20915;-83
2022/05/11 07:59:59;;;;;;;6.35;4.75;;;;;;;24.38;38.91;98809.76;2260975;78;20982;-83
2022/05/11 08:02:58;;;;;;;10.72;4.85;;;;;;;24.62;38.10;98801.11;2260233;79;20930;-82
2022/05/11 08:05:58;;;;;;;10.53;4.62;;;;;;;24.88;37.35;98802.58;2260040;79;20919;-81
2022/05/11 08:08:58;;;;;;;10.93;4.33;;;;;;;24.96;37.63;98799.94;2254222;79;21979;-81
2022/05/11 08:12:00;;;;;;;10.63;4.45;;;;;;;25.16;35.83;98792.38;2245743;79;21010;-83
2022/05/11 08:14:59;;;;;;;6.40;4.90;;;;;;;25.24;36.17;98788.87;2246758;79;20951;-80
2022/05/11 08:18:00;;;;;;;8.23;4.33;;;;;;;25.39;35.85;98786.78;2246198;79;21697;-81
2022/05/11 08:21:01;;;;;;;4.97;4.15;;;;;;;25.42;35.54;98784.90;2246101;79;21021;-80
2022/05/11 08:24:00;;;;;;;4.92;4.00;;;;;;;25.57;35.61;98778.33;2246908;79;20931;-82
2022/05/11 08:27:02;;;;;;;4.65;3.90;;;;;;;25.75;34.98;98782.38;2247714;79;21406;-81
2022/05/11 08:33:23;;;;;;;6.45;4.62;;;;;;;25.82;34.75;98773.97;2246786;78;21279;-82
2022/05/11 08:36:24;;;;;;;47.88;8.33;;;;;;;25.94;34.82;98781.84;2245895;78;22144;-81
2022/05/11 08:39:24;;;;;;;10.15;4.70;;;;;;;26.02;34.36;98775.66;2245320;79;20943;-82
2022/05/11 08:42:24;;;;;;;6.08;4.00;;;;;;;26.31;34.25;98777.66;2245845;79;20932;-80
2022/05/11 08:45:25;;;;;;;7.85;4.35;;;;;;;26.50;33.85;98770.88;2246293;79;20935;-82
2022/05/11 08:48:26;;;;;;;8.45;4.60;;;;;;;26.69;33.61;98764.52;2247279;79;21050;-82
2022/05/11 08:51:26;;;;;;;23.15;6.40;;;;;;;27.09;33.67;98767.25;2247748;79;21350;-82
2022/05/11 08:54:26;;;;;;;6.00;4.08;;;;;;;27.09;33.67;98767.25;2247674;79;20947;-82
2022/05/11 08:57:26;;;;;;;6.72;4.45;;;;;;;27.24;32.63;98763.22;2247129;79;21004;-81
2022/05/11 09:00:29;;;;;;;10.70;4.45;;;;;;;27.17;32.14;98763.66;2247422;79;20986;-81
2022/05/11 09:03:31;;;;;;;5.80;4.33;;;;;;;27.07;32.22;98767.34;2225242;79;20932;-80
2022/05/11 09:06:30;;;;;;;5.37;4.00;;;;;;;27.12;32.87;98763.05;2247020;79;20990;-80
2022/05/11 09:09:31;;;;;;;6.87;4.65;;;;;;;27.33;31.98;98760.48;2249829;78;20947;-83
2022/05/11 09:12:30;;;;;;;8.03;4.40;;;;;;;27.00;32.44;98757.92;2253998;79;20966;-81
2022/05/11 09:15:31;;;;;;;7.15;4.83;;;;;;;26.92;33.29;98756.98;2254499;79;20962;-80
2022/05/11 09:18:31;;;;;;;6.62;4.15;;;;;;;27.21;33.61;98764.73;2253870;79;21054;-80
2022/05/11 09:21:32;;;;;;;11.05;4.20;;;;;;;27.46;32.60;98760.64;2254080;79;21836;-82
2022/05/11 09:24:32;;;;;;;12.25;4.45;;;;;;;27.36;30.88;98780.41;2254207;79;21023;-81
2022/05/11 09:27:32;;;;;;;9.60;4.40;;;;;;;27.11;30.58;98773.39;2255099;79;20950;-82
2022/05/11 09:30:33;;;;;;;8.50;3.98;;;;;;;27.14;31.61;98775.42;2254382;78;21953;-82
2022/05/11 09:33:33;;;;;;;5.40;3.90;;;;;;;27.31;30.64;98777.61;2254052;79;20974;-78
2022/05/11 09:36:35;;;;;;;8.00;4.45;;;;;;;27.33;30.45;98777.91;2254577;78;20990;-77
2022/05/11 09:39:35;;;;;;;6.97;4.10;;;;;;;27.39;30.78;98784.73;2252505;79;21088;-79
2022/05/11 09:42:37;;;;;;;6.45;3.77;;;;;;;27.40;30.97;98779.77;2251731;79;21353;-80
2022/05/11 09:45:41;;;;;;;6.33;4.25;;;;;;;27.33;30.60;98773.03;2254177;78;20939;-80
2022/05/11 09:48:41;;;;;;;5.62;4.00;;;;;;;27.36;30.21;98776.87;2254339;79;21021;-81
2022/05/11 09:51:43;;;;;;;6.03;3.80;;;;;;;27.48;30.93;98764.97;2254559;79;20931;-79
2022/05/11 09:54:46;;;;;;;13.32;4.40;;;;;;;27.78;30.58;98764.17;2253718;79;21003;-81
2022/05/11 09:57:45;;;;;;;16.97;4.60;;;;;;;28.04;30.20;98772.87;2254113;79;20943;-82
2022/05/11 10:00:46;;;;;;;5.75;4.20;;;;;;;28.05;30.18;98777.28;2253390;79;21880;-81
2022/05/11 10:03:46;;;;;;;7.85;4.12;;;;;;;27.77;30.32;98777.20;2253274;79;21696;-82
2022/05/11 10:06:47;;;;;;;8.53;4.40;;;;;;;27.77;30.32;98777.20;2253018;79;21021;-80
2022/05/11 10:09:48;;;;;;;7.37;4.53;;;;;;;27.64;30.56;98770.80;2253376;77;21014;-82
2022/05/11 10:12:48;;;;;;;9.65;3.90;;;;;;;27.59;30.49;98768.36;2253326;78;20958;-80
2022/05/11 10:22:26;;;;;;;6.08;3.85;;;;;;;27.99;29.62;98762.89;2253630;79;20971;-81
2022/05/11 10:25:26;;;;;;;10.28;4.10;;;;;;;28.12;29.84;98756.30;2253333;79;20939;-80
2022/05/11 10:28:27;;;;;;;15.70;4.15;;;;;;;28.20;29.54;98751.33;2253939;79;21390;-79
2022/05/11 10:31:29;;;;;;;9.23;4.22;;;;;;;28.01;29.37;98757.44;2253528;78;21309;-82
2022/05/11 10:34:28;;;;;;;5.58;4.30;;;;;;;27.95;29.67;98752.44;2252339;79;20970;-80
2022/05/11 10:37:29;;;;;;;6.53;4.05;;;;;;;27.95;29.67;98752.44;2251755;79;21021;-82
2022/05/11 10:40:29;;;;;;;6.42;4.25;;;;;;;27.92;29.24;98744.09;2252790;79;20970;-82
2022/05/11 10:43:29;;;;;;;4.90;3.40;;;;;;;27.94;29.28;98742.19;2252375;79;20912;-80
2022/05/11 10:46:29;;;;;;;17.75;4.97;;;;;;;28.25;28.97;98738.52;2252730;79;20994;-80
2022/05/11 10:49:32;;;;;;;6.22;4.30;;;;;;;28.66;28.84;98752.08;2252552;79;20992;-81
2022/05/11 10:52:30;;;;;;;26.33;4.70;;;;;;;28.68;27.80;98739.89;2253073;79;20927;-80
2022/05/11 10:55:31;;;;;;;13.88;4.75;;;;;;;28.71;27.87;98742.38;2253228;78;21010;-80
2022/05/11 10:58:33;;;;;;;8.00;5.20;;;;;;;28.78;27.83;98739.20;2252551;79;20955;-80
2022/05/11 11:01:34;;;;;;;5.87;4.40;;;;;;;28.89;27.43;98740.38;2220990;79;21013;-80
2022/05/11 11:04:34;;;;;;;6.65;4.33;;;;;;;28.91;27.77;98733.94;2252121;79;20970;-80
2022/05/11 11:07:34;;;;;;;8.15;4.62;;;;;;;28.98;28.21;98733.92;2252416;79;20947;-79
2022/05/11 11:10:35;;;;;;;8.58;4.12;;;;;;;29.19;27.97;98726.28;2248127;78;20979;-81
2022/05/11 11:13:37;;;;;;;41.55;7.12;;;;;;;29.25;26.96;98729.05;2245748;79;20880;-78
2022/05/11 11:16:36;;;;;;;32.80;5.40;;;;;;;29.02;27.70;98730.08;2246066;79;20938;-81
2022/05/11 11:19:36;;;;;;;59.08;7.72;;;;;;;29.21;27.31;98713.61;2246446;79;20998;-82
2022/05/11 11:22:37;;;;;;;7.75;4.15;;;;;;;29.53;27.36;98711.52;2247452;79;20971;-82
2022/05/11 11:25:38;;;;;;;7.62;4.28;;;;;;;29.96;27.15;98712.61;2247426;79;20927;-80
2022/05/11 11:28:37;;;;;;;6.47;3.72;;;;;;;29.91;26.51;98703.51;2246558;79;20993;-83
2022/05/11 11:31:38;;;;;;;18.67;4.30;;;;;;;29.93;25.76;98709.65;2246439;79;21003;-82
2022/05/11 11:34:38;;;;;;;6.15;4.00;;;;;;;29.78;25.95;98708.88;2245905;79;20954;-83
2022/05/11 11:37:39;;;;;;;8.90;4.28;;;;;;;29.64;25.85;98717.03;2245735;79;20975;-82
2022/05/11 11:40:39;;;;;;;10.13;4.35;;;;;;;29.50;26.20;98702.80;2246721;79;21041;-80
2022/05/11 11:43:40;;;;;;;7.85;4.42;;;;;;;29.39;26.37;98701.62;2246523;79;21330;-81
2022/05/11 11:46:40;;;;;;;6.25;4.28;;;;;;;29.42;26.09;98696.52;2246664;79;20960;-80
2022/05/11 11:49:40;;;;;;;6.87;4.60;;;;;;;29.60;26.12;98690.45;2245836;79;21050;-81
2022/05/11 11:52:41;;;;;;;19.60;5.17;;;;;;;29.58;26.17;98691.89;2246867;79;21860;-80
2022/05/11 11:55:41;;;;;;;6.92;4.15;;;;;;;29.75;26.08;98696.98;2246369;79;21018;-79
2022/05/11 11:58:41;;;;;;;5.25;4.10;;;;;;;29.41;26.37;98693.45;2244920;79;21001;-79
2022/05/11 12:01:42;;;;;;;4.42;4.03;;;;;;;29.17;25.93;98684.72;2244371;79;21977;-81
2022/05/11 12:04:42;;;;;;;11.30;4.37;;;;;;;29.26;26.68;98679.70;2246303;79;20990;-80
2022/05/11 12:17:39;;;;;;;7.67;4.40;;;;;;;29.83;26.47;98686.17;2238856;79;20963;-80
2022/05/11 12:20:40;;;;;;;9.63;4.12;;;;;;;30.02;25.48;98678.58;2238774;79;20957;-83
2022/05/11 12:23:40;;;;;;;9.28;4.25;;;;;;;29.91;25.99;98674.40;2238613;79;21018;-79
2022/05/11 12:26:40;;;;;;;8.00;4.10;;;;;;;29.93;26.14;98673.80;2238486;79;21327;-80
2022/05/11 12:29:59;;;;;;;7.92;4.10;;;;;;;29.79;25.68;98672.08;2238632;79;21058;-79
2022/05/11 12:32:57;;;;;;;8.30;4.40;;;;;;;29.53;26.21;98665.80;2238450;79;20959;-81
2022/05/11 12:35:57;;;;;;;6.22;4.28;;;;;;;29.61;26.21;98665.27;2238424;79;21581;-81
2022/05/11 12:38:57;;;;;;;8.10;4.22;;;;;;;29.54;25.57;98655.42;2238708;79;21006;-82
2022/05/11 12:42:00;;;;;;;10.75;4.40;;;;;;;29.29;26.46;98658.84;2217706;79;21015;-81
2022/05/11 12:45:00;;;;;;;11.60;4.80;;;;;;;29.59;26.53;98657.31;2239062;79;20967;-80
2022/05/11 12:48:00;;;;;;;5.25;3.95;;;;;;;29.88;26.10;98648.56;2239242;79;21026;-82
2022/05/11 12:51:01;;;;;;;6.42;4.00;;;;;;;30.13;26.33;98657.63;2238765;79;21389;-82
2022/05/11 12:54:01;;;;;;;6.78;3.92;;;;;;;30.19;26.17;98659.41;2238672;79;21008;-81
2022/05/11 12:57:11;;;;;;;6.72;4.05;;;;;;;30.11;25.98;98655.05;2239547;79;20951;-80
2022/05/11 13:00:05;;;;;;;5.58;4.12;;;;;;;30.18;26.55;98653.64;2239554;79;20923;-80
2022/05/11 13:03:05;;;;;;;8.65;4.22;;;;;;;30.24;26.16;98647.82;2239509;79;20963;-79
2022/05/11 13:06:06;;;;;;;9.55;4.50;;;;;;;30.22;26.34;98650.25;2236674;79;20979;-80
2022/05/11 13:09:06;;;;;;;8.68;4.22;;;;;;;30.13;26.87;98643.69;2239220;79;20955;-82
2022/05/11 13:12:06;;;;;;;6.80;4.12;;;;;;;30.00;27.06;98645.50;2252814;79;21205;-83
2022/05/11 13:15:07;;;;;;;12.37;4.00;;;;;;;29.91;27.37;98642.11;2254318;79;20971;-82
2022/05/11 13:18:07;;;;;;;6.72;4.00;;;;;;;29.99;27.40;98637.91;2253732;79;22113;-80
2022/05/11 13:21:09;;;;;;;5.33;4.70;;;;;;;30.17;27.38;98635.77;2253396;79;20971;-80
2022/05/11 13:24:08;;;;;;;7.62;4.12;;;;;;;30.32;26.77;98629.28;2253530;79;20934;-81
2022/05/11 13:27:08;;;;;;;7.30;3.98;;;;;;;30.44;26.90;98632.95;2252187;79;21421;-80
2022/05/11 13:30:09;;;;;;;11.83;4.72;;;;;;;30.38;26.51;98623.49;2252375;79;20986;-81
2022/05/11 13:33:09;;;;;;;8.45;4.20;;;;;;;30.22;26.05;98627.36;2253397;79;20928;-80
2022/05/11 13:36:10;;;;;;;6.17;3.85;;;;;;;29.97;26.36;98630.91;2254387;78;20982;-83
2022/05/11 13:39:11;;;;;;;4.97;3.92;;;;;;;29.82;27.08;98618.54;2254168;79;21373;-80
2022/05/11 13:42:11;;;;;;;5.58;3.90;;;;;;;29.93;27.29;98615.47;2254669;79;20935;-81
2022/05/11 13:45:11;;;;;;;5.17;3.85;;;;;;;29.85;26.90;98612.94;2254582;79;20943;-81
2022/05/11 13:48:11;;;;;;;10.55;4.50;;;;;;;29.61;27.14;98602.94;2254046;79;21357;-80
2022/05/11 13:51:14;;;;;;;5.00;3.80;;;;;;;29.66;27.31;98604.81;2254099;79;20884;-80
2022/05/11 13:54:12;;;;;;;5.92;4.00;;;;;;;29.96;27.35;98598.25;2254910;79;21358;-80
2022/05/11 13:57:12;;;;;;;4.42;3.60;;;;;;;30.20;26.91;98590.27;2255214;79;20955;-80
2022/05/11 14:00:13;;;;;;;36.13;5.42;;;;;;;30.25;26.87;98588.97;2254390;79;20962;-81
2022/05/11 14:03:13;;;;;;;9.15;3.80;;;;;;;29.90;26.91;98581.19;2254283;79;20975;-79
2022/05/11 14:06:14;;;;;;;9.28;3.77;;;;;;;29.52;26.92;98586.09;2255159;79;20923;-82
2022/05/11 14:09:14;;;;;;;4.67;3.85;;;;;;;29.46;27.35;98581.11;2256232;79;20891;-82
2022/05/11 14:12:15;;;;;;;4.60;3.60;;;;;;;29.60;27.33;98579.70;2248124;77;20967;-81
2022/05/11 14:15:15;;;;;;;10.35;4.17;;;;;;;29.43;27.59;98570.08;2248941;79;20888;-81
2022/05/11 14:18:16;;;;;;;6.28;3.98;;;;;;;29.18;27.74;98574.91;2247292;79;20958;-81
2022/05/11 14:21:16;;;;;;;6.58;4.08;;;;;;;29.24;27.79;98570.08;2247257;79;20991;-81
2022/05/11 14:24:16;;;;;;;20.82;4.33;;;;;;;29.45;27.12;98572.66;2248034;79;20982;-82
2022/05/11 14:27:17;;;;;;;7.95;3.58;;;;;;;29.60;26.94;98568.94;2247189;79;20935;-80
2022/05/11 14:30:17;;;;;;;11.53;3.52;;;;;;;29.52;26.34;98565.06;2248131;79;20979;-82
2022/05/11 14:33:17;;;;;;;10.98;3.90;;;;;;;29.29;26.42;98570.63;2248308;79;20966;-83
2022/05/11 14:36:18;;;;;;;9.55;3.92;;;;;;;28.94;26.23;98563.62;2249533;79;20960;-81
2022/05/11 14:39:19;;;;;;;82.53;9.53;;;;;;;29.09;25.57;98551.83;2249038;79;21025;-81
2022/05/11 14:42:19;;;;;;;6.47;3.35;;;;;;;29.13;25.85;98550.66;2248828;79;21671;-82
2022/05/11 14:45:19;;;;;;;12.25;4.05;;;;;;;29.21;26.12;98553.68;2248773;79;21018;-83
2022/05/11 14:48:19;;;;;;;9.05;4.33;;;;;;;29.27;25.92;98555.08;2249898;79;20987;-83